Time;durP1;ratioP1;P1;durP2;ratioP2;P2;SDS_P1;SDS_P2;PMS_P1;PMS_P2;Temp;Humidity;BMP_temperature;BMP_pressure;BME280_temperature;BME280_humidity;BME280_pressure;Samples;Min_cycle;Max_cycle;Signal;HPM_P1;HPM_P2
2023/01/28 00:00:52;;;;;;;20.05;13.55;;;;;;;5.66;52.91;98873.88;5013425;28;20037;-47
2023/01/28 00:03:18;;;;;;;18.00;13.23;;;;;;;5.51;52.38;98873.69;5013771;28;20191;-47
2023/01/28 00:05:44;;;;;;;21.30;14.45;;;;;;;5.50;53.19;98869.50;5013494;28;20426;-48
2023/01/28 00:08:10;;;;;;;16.38;12.45;;;;;;;5.47;53.77;98869.00;5031282;28;20103;-47
2023/01/28 00:10:38;;;;;;;20.80;14.75;;;;;;;5.53;52.98;98869.19;5013484;28;20029;-47
2023/01/28 00:13:05;;;;;;;17.33;12.98;;;;;;;5.52;52.97;98869.34;5031466;28;20045;-47
2023/01/28 00:15:30;;;;;;;18.92;13.20;;;;;;;5.39;52.25;98862.00;5013392;28;20030;-47
2023/01/28 00:17:56;;;;;;;17.60;12.48;;;;;;;5.40;52.47;98861.03;5015351;28;20091;-47
2023/01/28 00:20:21;;;;;;;22.83;14.30;;;;;;;5.17;52.19;98872.09;5017054;28;20037;-47
2023/01/28 00:22:48;;;;;;;25.20;14.18;;;;;;;5.04;53.19;98871.72;5034705;28;20045;-47
2023/01/28 00:25:14;;;;;;;18.52;13.18;;;;;;;5.10;53.46;98867.69;5034931;28;20507;-47
2023/01/28 00:27:39;;;;;;;22.20;14.95;;;;;;;5.15;53.11;98868.81;5016926;28;20022;-47
2023/01/28 00:30:06;;;;;;;20.17;13.68;;;;;;;5.27;54.69;98865.91;5034521;28;20094;-47
2023/01/28 00:32:31;;;;;;;18.17;13.60;;;;;;;5.40;53.77;98866.25;5034613;28;20506;-47
2023/01/28 00:34:57;;;;;;;20.13;13.55;;;;;;;5.30;53.68;98866.41;5034533;28;20139;-47
2023/01/28 00:37:23;;;;;;;21.83;14.32;;;;;;;5.16;53.64;98864.44;5034493;28;20557;-48
2023/01/28 00:39:49;;;;;;;18.60;14.07;;;;;;;5.12;54.15;98860.53;5016707;28;20030;-48
2023/01/28 00:42:15;;;;;;;18.23;13.23;;;;;;;5.15;53.86;98858.44;5034350;28;20028;-48
2023/01/28 00:44:41;;;;;;;17.48;13.75;;;;;;;5.18;53.98;98854.69;5034270;28;20025;-48
2023/01/28 00:47:07;;;;;;;19.70;13.75;;;;;;;5.25;54.34;98850.47;5034341;28;20109;-48
2023/01/28 00:49:33;;;;;;;18.40;14.68;;;;;;;5.29;54.02;98848.34;5034307;28;20048;-48
2023/01/28 00:51:59;;;;;;;21.80;14.13;;;;;;;5.28;54.07;98851.94;5012893;28;20496;-48
2023/01/28 00:54:24;;;;;;;18.40;14.10;;;;;;;5.37;54.69;98853.53;5014729;28;20096;-48
2023/01/28 00:56:52;;;;;;;16.33;12.30;;;;;;;5.51;54.43;98857.28;5013044;28;20064;-48
2023/01/28 00:59:18;;;;;;;21.95;14.52;;;;;;;5.50;54.26;98845.25;5012981;28;20475;-48
2023/01/28 01:01:44;;;;;;;18.88;12.90;;;;;;;5.50;54.46;98850.47;5014219;28;20105;-47
2023/01/28 01:04:09;;;;;;;16.98;13.57;;;;;;;5.50;54.51;98845.25;5014253;28;20496;-48
2023/01/28 01:06:38;;;;;;;22.85;13.82;;;;;;;5.54;54.58;98851.75;5014177;28;20030;-47
2023/01/28 01:09:06;;;;;;;24.88;14.55;;;;;;;5.55;53.96;98843.78;5014129;28;20029;-48
2023/01/28 01:11:32;;;;;;;20.02;13.82;;;;;;;5.44;53.76;98844.13;5014130;28;20068;-47
2023/01/28 01:13:59;;;;;;;17.27;13.27;;;;;;;5.34;53.85;98849.47;5012746;28;20053;-47
2023/01/28 01:16:28;;;;;;;17.73;13.32;;;;;;;5.34;54.54;98857.28;5012678;28;20073;-47
2023/01/28 01:18:55;;;;;;;20.23;14.60;;;;;;;5.40;53.74;98850.63;5014228;28;20124;-48
2023/01/28 01:21:24;;;;;;;19.00;14.15;;;;;;;5.42;54.51;98850.47;5013833;28;20057;-48
2023/01/28 01:23:50;;;;;;;19.52;12.73;;;;;;;5.52;53.68;98846.72;5013886;28;20523;-47
2023/01/28 01:26:19;;;;;;;22.17;13.07;;;;;;;5.40;53.71;98851.44;5012531;28;20029;-47
2023/01/28 01:28:44;;;;;;;19.70;13.43;;;;;;;5.38;54.57;98855.19;5012587;28;20026;-47
2023/01/28 01:31:13;;;;;;;20.15;12.50;;;;;;;5.38;54.18;98850.78;5013977;28;20033;-47
2023/01/28 01:33:42;;;;;;;23.88;13.88;;;;;;;5.27;54.52;98861.53;5012352;28;20029;-47
2023/01/28 01:36:09;;;;;;;22.27;13.77;;;;;;;5.29;54.11;98870.00;5013653;28;20510;-47
2023/01/28 01:38:35;;;;;;;21.02;13.20;;;;;;;5.14;54.26;98859.38;5012323;28;20022;-48
2023/01/28 01:41:02;;;;;;;17.88;13.65;;;;;;;5.15;54.56;98865.41;5013453;28;20026;-48
2023/01/28 01:43:52;;;;;;;18.35;13.32;;;;;;;5.17;54.52;98866.03;5012205;28;20500;-47
2023/01/28 01:46:37;;;;;;;17.58;12.85;;;;;;;5.10;54.81;98868.47;5013520;28;20087;-47
2023/01/28 01:49:24;;;;;;;26.00;13.43;;;;;;;5.30;54.67;98866.41;4996159;28;20099;-48
2023/01/28 01:51:55;;;;;;;22.40;14.35;;;;;;;5.45;54.99;98865.75;5020431;28;20100;-48
2023/01/28 01:54:24;;;;;;;19.80;12.90;;;;;;;5.48;54.74;98878.44;5015758;28;20045;-48
2023/01/28 01:56:51;;;;;;;22.77;12.73;;;;;;;5.56;54.27;98870.63;5032959;28;20092;-48
2023/01/28 01:59:23;;;;;;;17.63;13.27;;;;;;;5.60;53.72;98880.56;5032950;28;20563;-47
2023/01/28 02:01:49;;;;;;;16.60;12.82;;;;;;;5.47;53.69;98874.19;5015089;28;20083;-47
2023/01/28 02:04:21;;;;;;;20.80;13.20;;;;;;;5.36;53.72;98878.75;5032922;28;20021;-47
2023/01/28 02:06:47;;;;;;;17.73;13.30;;;;;;;5.42;53.78;98887.72;5032881;28;20514;-47
2023/01/28 02:09:24;;;;;;;18.63;12.82;;;;;;;5.36;53.89;98880.56;5015252;28;20562;-47
2023/01/28 02:11:54;;;;;;;15.95;11.82;;;;;;;5.34;53.46;98880.72;5032727;28;20022;-47
2023/01/28 02:14:22;;;;;;;22.65;13.32;;;;;;;5.22;53.98;98876.00;5014968;28;20088;-47
2023/01/28 02:16:48;;;;;;;21.20;13.40;;;;;;;5.28;54.35;98883.97;5032655;28;20021;-47
2023/01/28 02:19:16;;;;;;;18.23;13.10;;;;;;;5.35;54.38;98873.69;5032603;28;20079;-47
2023/01/28 02:22:14;;;;;;;18.08;12.57;;;;;;;5.33;53.98;98867.84;5014636;28;20021;-47
2023/01/28 02:24:58;;;;;;;17.77;12.90;;;;;;;5.15;53.73;98871.44;5032869;28;20056;-47
2023/01/28 02:27:34;;;;;;;19.80;14.13;;;;;;;5.09;54.33;98866.03;5014733;28;20521;-47
2023/01/28 02:30:14;;;;;;;18.35;14.32;;;;;;;5.01;54.47;98866.88;5032480;28;20453;-47
2023/01/28 02:32:52;;;;;;;27.63;20.10;;;;;;;4.92;54.68;98867.81;5014690;28;20499;-47
2023/01/28 02:35:30;;;;;;;22.27;14.60;;;;;;;4.85;54.33;98867.63;5014617;28;20132;-47
2023/01/28 02:37:55;;;;;;;19.85;12.88;;;;;;;4.78;54.84;98866.63;5032388;28;20030;-47
2023/01/28 02:40:29;;;;;;;17.23;12.40;;;;;;;4.73;54.71;98861.09;5014094;28;20079;-47
2023/01/28 02:42:56;;;;;;;20.20;14.05;;;;;;;4.73;55.46;98858.50;5014393;28;20026;-47
2023/01/28 02:47:56;;;;;;;22.83;12.70;;;;;;;4.79;55.38;98869.09;5014372;28;20116;-47
2023/01/28 02:48:12;;;;;;;19.50;13.85;;;;;;;4.85;55.68;98864.19;5031588;28;20067;-47
2023/01/28 02:50:51;;;;;;;18.80;13.38;;;;;;;4.93;55.14;98861.63;5032033;28;20061;-48
2023/01/28 02:53:45;;;;;;;16.85;13.05;;;;;;;5.04;54.88;98863.13;5031923;28;20045;-47
2023/01/28 02:56:28;;;;;;;18.70;12.65;;;;;;;5.00;54.67;98865.22;5014311;28;20042;-48
2023/01/28 02:59:31;;;;;;;19.25;13.30;;;;;;;4.84;54.43;98866.00;5032325;28;20514;-47
2023/01/28 03:02:19;;;;;;;17.83;12.98;;;;;;;4.89;55.02;98860.31;5031906;28;20021;-48
2023/01/28 03:04:54;;;;;;;23.63;14.10;;;;;;;4.91;55.63;98867.00;5003826;28;20045;-47
2023/01/28 03:07:23;;;;;;;18.02;12.82;;;;;;;4.96;55.24;98875.13;5031982;28;20032;-47
2023/01/28 03:09:51;;;;;;;26.80;18.50;;;;;;;4.99;55.72;98869.63;5014132;28;20029;-47
2023/01/28 03:38:32;;;;;;;19.65;15.07;;;;;;;5.16;54.28;98875.66;5031911;28;20044;-48
2023/01/28 03:41:02;;;;;;;22.95;15.68;;;;;;;5.06;54.58;98877.59;5031819;28;20057;-47
2023/01/28 03:43:32;;;;;;;27.27;14.55;;;;;;;5.21;55.17;98877.75;5013835;28;20057;-48
2023/01/28 03:45:58;;;;;;;21.42;14.40;;;;;;;5.34;55.09;98878.09;5031449;28;20030;-48
2023/01/28 03:48:25;;;;;;;18.92;13.85;;;;;;;5.28;53.43;98888.34;5031740;28;20180;-48
2023/01/28 03:50:52;;;;;;;18.42;13.57;;;;;;;5.16;53.84;98880.84;5031425;28;20168;-48
2023/01/28 03:53:18;;;;;;;19.98;13.32;;;;;;;5.19;54.08;98888.34;5016113;28;20183;-48
2023/01/28 03:55:46;;;;;;;17.38;13.95;;;;;;;5.10;54.33;98880.69;5017494;28;20021;-48
2023/01/28 03:58:12;;;;;;;20.23;12.20;;;;;;;5.09;54.17;98889.44;5017458;28;20029;-48
2023/01/28 04:00:41;;;;;;;19.52;13.73;;;;;;;5.00;54.51;98892.03;5035177;28;20022;-48
2023/01/28 04:03:17;;;;;;;17.88;14.13;;;;;;;5.09;54.96;98892.06;5017854;28;20033;-48
2023/01/28 04:05:44;;;;;;;17.10;12.68;;;;;;;5.15;53.63;98901.81;5035147;28;20076;-47
2023/01/28 04:08:10;;;;;;;16.45;12.63;;;;;;;5.03;54.06;98890.94;5034985;28;20036;-48
2023/01/28 04:10:38;;;;;;;17.48;13.32;;;;;;;5.08;54.79;98893.03;5017228;28;20440;-47
2023/01/28 04:13:04;;;;;;;16.48;13.82;;;;;;;5.11;54.52;98896.13;5035032;28;20483;-48
2023/01/28 04:15:30;;;;;;;16.20;12.13;;;;;;;5.14;54.79;98895.00;5017116;28;20095;-48
2023/01/28 04:17:56;;;;;;;16.27;13.07;;;;;;;5.10;55.00;98901.50;5017102;28;20483;-47
2023/01/28 04:20:22;;;;;;;18.30;11.85;;;;;;;5.12;55.17;98902.16;5017083;28;20026;-47
2023/01/28 04:22:47;;;;;;;20.25;14.00;;;;;;;5.18;55.17;98898.91;5016962;28;20033;-48
2023/01/28 04:25:13;;;;;;;18.08;14.05;;;;;;;5.20;54.93;98899.56;5034760;28;20014;-48
2023/01/28 04:27:38;;;;;;;18.17;13.95;;;;;;;5.11;54.21;98900.50;5034727;28;20026;-48
2023/01/28 04:30:05;;;;;;;19.50;13.05;;;;;;;4.93;54.31;98917.06;5016878;28;20026;-48
2023/01/28 04:32:30;;;;;;;18.35;13.15;;;;;;;4.86;54.70;98913.44;5016790;28;20129;-48
2023/01/28 04:34:56;;;;;;;17.70;14.18;;;;;;;4.92;55.39;98902.41;5016807;28;20172;-48
2023/01/28 04:37:21;;;;;;;21.17;13.18;;;;;;;5.00;55.47;98905.03;5016772;28;20033;-48
2023/01/28 04:39:47;;;;;;;18.35;13.57;;;;;;;5.07;54.42;98900.03;5034746;28;20387;-48
2023/01/28 04:42:13;;;;;;;19.65;14.25;;;;;;;5.06;54.76;98905.38;5034597;28;20486;-48
2023/01/28 04:44:38;;;;;;;16.20;12.68;;;;;;;5.00;55.06;98912.84;5034427;28;20483;-48
2023/01/28 04:47:04;;;;;;;16.27;12.15;;;;;;;4.95;54.25;98899.53;5034400;28;20025;-47
2023/01/28 04:49:29;;;;;;;16.88;13.02;;;;;;;4.99;55.54;98903.44;5034296;28;20075;-47
2023/01/28 04:51:55;;;;;;;15.82;13.20;;;;;;;5.12;54.56;98900.34;5012932;28;20037;-48
2023/01/28 04:54:20;;;;;;;18.52;13.77;;;;;;;5.05;55.14;98901.16;5014433;28;20030;-48
2023/01/28 04:56:46;;;;;;;19.40;13.38;;;;;;;5.03;54.88;98903.94;5013113;28;20061;-48
2023/01/28 04:59:12;;;;;;;15.55;13.88;;;;;;;5.10;54.56;98897.09;5014394;28;20026;-48
2023/01/28 05:01:37;;;;;;;17.13;13.27;;;;;;;5.00;54.85;98892.03;5012941;28;20022;-48
2023/01/28 05:04:04;;;;;;;18.27;12.77;;;;;;;5.09;54.64;98902.44;5012957;28;20037;-48
2023/01/28 05:06:31;;;;;;;18.08;15.00;;;;;;;5.14;54.62;98900.19;5013034;28;20018;-48
2023/01/28 05:08:59;;;;;;;22.10;16.23;;;;;;;5.09;54.72;98903.28;5014203;28;20031;-48
2023/01/28 05:11:25;;;;;;;17.20;13.85;;;;;;;5.09;54.87;98907.66;5013019;28;20022;-48
2023/01/28 05:13:50;;;;;;;19.35;14.25;;;;;;;5.03;53.80;98903.94;5012805;28;20026;-47
2023/01/28 05:16:16;;;;;;;16.00;12.90;;;;;;;4.92;55.20;98905.03;5014120;28;20022;-47
2023/01/28 05:18:42;;;;;;;17.92;13.68;;;;;;;4.94;54.45;98902.28;5014086;28;20463;-48
2023/01/28 05:21:08;;;;;;;19.08;13.02;;;;;;;4.87;54.73;98915.09;5012585;28;20017;-47
2023/01/28 05:23:36;;;;;;;17.52;15.65;;;;;;;4.76;55.36;98915.38;5012585;28;20057;-48
2023/01/28 05:26:02;;;;;;;19.77;13.07;;;;;;;4.67;55.54;98903.31;5012622;28;20656;-47
2023/01/28 05:28:28;;;;;;;17.73;13.48;;;;;;;4.64;55.40;98912.25;5012523;28;20061;-48
2023/01/28 05:30:53;;;;;;;16.92;14.10;;;;;;;4.64;55.10;98914.03;5012487;28;20056;-47
2023/01/28 05:33:19;;;;;;;17.08;12.85;;;;;;;4.57;55.36;98911.25;5013781;28;20018;-48
2023/01/28 05:35:44;;;;;;;16.25;12.57;;;;;;;4.68;55.72;98910.16;5012332;28;20117;-48
2023/01/28 05:38:10;;;;;;;18.60;13.43;;;;;;;4.86;54.75;98913.44;5013634;28;20075;-48
2023/01/28 05:40:36;;;;;;;17.15;12.63;;;;;;;5.08;54.45;98913.84;5013548;28;20029;-48
2023/01/28 05:43:01;;;;;;;16.42;11.27;;;;;;;5.06;53.63;98919.19;5012189;28;20159;-48
2023/01/28 05:45:27;;;;;;;15.60;11.80;;;;;;;5.12;54.31;98915.16;5012230;28;20022;-48
2023/01/28 05:47:52;;;;;;;14.68;11.95;;;;;;;5.02;53.12;98915.28;5012156;28;20128;-48
2023/01/28 05:50:18;;;;;;;14.57;13.05;;;;;;;5.00;53.88;98915.44;5012169;28;20030;-48
2023/01/28 05:52:44;;;;;;;16.83;12.57;;;;;;;4.94;54.59;98928.28;5011847;28;20038;-48
2023/01/28 05:55:09;;;;;;;18.23;11.98;;;;;;;5.00;54.44;98912.84;4995745;28;20534;-48
2023/01/28 05:57:35;;;;;;;15.60;11.38;;;;;;;5.00;53.77;98923.25;5012061;28;20072;-47
2023/01/28 06:00:01;;;;;;;16.27;12.55;;;;;;;4.97;54.31;98933.16;5013180;28;20022;-47
2023/01/28 06:02:26;;;;;;;17.20;12.57;;;;;;;4.95;53.95;98930.72;5011768;28;20057;-48
2023/01/28 06:04:52;;;;;;;17.48;12.23;;;;;;;4.94;53.39;98941.28;5011869;28;20025;-47
2023/01/28 06:07:20;;;;;;;20.30;11.55;;;;;;;4.91;53.55;98934.63;5011807;28;20018;-47
2023/01/28 06:09:47;;;;;;;15.25;10.82;;;;;;;5.03;53.39;98923.91;5013329;28;20507;-48
2023/01/28 06:12:13;;;;;;;17.15;12.88;;;;;;;5.10;52.54;98930.91;5013261;28;20029;-47
2023/01/28 06:14:38;;;;;;;15.82;10.82;;;;;;;4.98;52.58;98925.19;5012655;28;20384;-48
2023/01/28 06:17:04;;;;;;;16.38;12.27;;;;;;;4.99;52.87;98937.25;5012908;28;20065;-47
2023/01/28 06:19:29;;;;;;;16.75;13.07;;;;;;;4.80;53.54;98934.88;5011613;28;20033;-47
2023/01/28 06:21:55;;;;;;;15.70;11.80;;;;;;;4.68;53.16;98942.16;5012761;28;20033;-47
2023/01/28 06:24:21;;;;;;;16.30;11.55;;;;;;;4.76;53.57;98939.59;5012810;28;20021;-48
2023/01/28 06:26:46;;;;;;;16.58;12.90;;;;;;;4.89;53.59;98938.31;5012760;28;20033;-48
2023/01/28 06:29:12;;;;;;;23.73;17.17;;;;;;;4.84;54.16;98938.81;5012944;28;20030;-48
2023/01/28 06:31:37;;;;;;;15.23;12.32;;;;;;;4.88;53.84;98954.91;5012648;28;20033;-48
2023/01/28 06:34:03;;;;;;;15.10;11.32;;;;;;;4.80;53.09;98951.28;5012663;28;20483;-48
2023/01/28 06:36:29;;;;;;;15.25;11.10;;;;;;;4.86;53.41;98962.06;5012481;28;20041;-48
2023/01/28 06:38:55;;;;;;;15.07;12.10;;;;;;;4.83;52.67;98959.75;5011388;28;20044;-47
2023/01/28 06:41:20;;;;;;;17.25;12.23;;;;;;;4.63;53.59;98956.56;5012993;28;20052;-47
2023/01/28 06:43:46;;;;;;;17.52;13.13;;;;;;;4.57;53.38;98963.25;5011154;28;20381;-47
2023/01/28 06:46:11;;;;;;;17.40;13.20;;;;;;;4.51;54.90;98961.25;5011157;28;20053;-47
2023/01/28 06:48:37;;;;;;;18.10;14.25;;;;;;;4.46;54.06;98964.28;5011035;28;20109;-47
2023/01/28 06:51:02;;;;;;;15.43;12.10;;;;;;;4.33;54.62;98962.13;5011088;28;20022;-48
2023/01/28 06:53:28;;;;;;;15.10;12.35;;;;;;;4.32;54.32;98955.28;5010863;28;20527;-48
2023/01/28 06:55:54;;;;;;;15.13;12.05;;;;;;;4.28;54.15;98953.16;5012285;28;20045;-48
2023/01/28 06:58:19;;;;;;;17.48;11.93;;;;;;;4.25;54.54;98953.47;5010998;28;20064;-48
2023/01/28 07:00:45;;;;;;;16.27;13.15;;;;;;;4.33;54.34;98956.13;5012204;28;20018;-47
2023/01/28 07:03:10;;;;;;;24.83;12.63;;;;;;;4.31;54.50;98963.25;5010883;28;20026;-47
2023/01/28 07:05:36;;;;;;;15.07;12.75;;;;;;;4.29;54.61;98958.19;5010897;28;20526;-48
2023/01/28 07:08:02;;;;;;;14.65;11.50;;;;;;;4.52;55.00;98960.28;5012400;28;20085;-48
2023/01/28 07:10:28;;;;;;;14.93;11.60;;;;;;;4.68;53.96;98954.34;5010857;28;20399;-47
2023/01/28 07:12:54;;;;;;;17.15;12.50;;;;;;;4.58;53.90;98957.06;5010871;28;20058;-47
2023/01/28 07:15:19;;;;;;;16.63;11.85;;;;;;;4.66;54.18;98966.69;5012056;28;20022;-48
2023/01/28 07:17:45;;;;;;;17.63;11.55;;;;;;;4.85;53.89;98969.06;5012418;28;20033;-48
2023/01/28 07:20:13;;;;;;;17.58;12.52;;;;;;;5.00;53.56;98959.66;5012088;28;20014;-48
2023/01/28 07:22:40;;;;;;;13.60;10.93;;;;;;;4.99;52.99;98967.66;5012140;28;20026;-47
2023/01/28 07:25:07;;;;;;;16.85;12.55;;;;;;;5.03;53.28;98981.97;5010688;28;20022;-48
2023/01/28 07:27:32;;;;;;;16.85;11.98;;;;;;;5.08;53.27;98969.28;5013813;28;20542;-48
2023/01/28 07:29:58;;;;;;;14.95;11.45;;;;;;;5.19;52.78;98982.00;5014784;28;20095;-47
2023/01/28 07:32:26;;;;;;;14.30;10.52;;;;;;;5.29;53.26;98984.47;5014654;28;20069;-48
2023/01/28 07:34:52;;;;;;;14.05;11.95;;;;;;;5.38;52.01;98973.09;5014713;28;20018;-48
2023/01/28 07:37:17;;;;;;;14.50;10.65;;;;;;;5.30;52.05;98990.50;5015925;28;20037;-48
2023/01/28 07:39:43;;;;;;;15.57;11.80;;;;;;;5.25;51.82;98990.97;5016108;28;20105;-48
2023/01/28 07:42:09;;;;;;;16.98;11.65;;;;;;;5.11;51.99;99001.97;5015775;28;20407;-47
2023/01/28 07:44:35;;;;;;;16.15;12.48;;;;;;;5.04;52.24;98996.59;5014522;28;20147;-48
2023/01/28 07:47:02;;;;;;;15.18;11.77;;;;;;;5.12;52.69;98988.00;5015746;28;20408;-48
2023/01/28 07:49:27;;;;;;;15.98;12.57;;;;;;;5.18;52.65;98997.78;5015717;28;20053;-48
2023/01/28 07:51:53;;;;;;;14.40;12.27;;;;;;;5.02;52.12;99000.31;5021158;28;20123;-48
2023/01/28 07:54:18;;;;;;;18.60;13.10;;;;;;;4.93;52.65;99008.09;5017696;28;20060;-48
2023/01/28 07:56:44;;;;;;;17.35;13.57;;;;;;;4.75;53.54;99005.56;5035358;28;20053;-48
2023/01/28 07:59:10;;;;;;;17.75;13.02;;;;;;;4.66;53.67;99011.69;5035641;28;20509;-48
2023/01/28 08:01:35;;;;;;;15.55;12.77;;;;;;;4.62;54.24;99014.75;5017421;28;20116;-48
2023/01/28 08:04:01;;;;;;;15.55;12.57;;;;;;;4.65;53.96;99015.25;5035321;28;20029;-47
2023/01/28 08:06:30;;;;;;;16.77;12.00;;;;;;;4.61;54.29;99021.75;5035149;28;20025;-47
2023/01/28 08:08:55;;;;;;;15.30;12.25;;;;;;;4.70;53.86;99015.59;5017328;28;20021;-48
2023/01/28 08:11:22;;;;;;;18.92;12.45;;;;;;;4.65;54.02;99022.22;5017262;28;20108;-48
2023/01/28 08:13:48;;;;;;;16.05;11.85;;;;;;;4.57;54.39;99026.44;5035066;28;20022;-47
2023/01/28 08:16:14;;;;;;;19.55;12.35;;;;;;;4.63;54.82;99025.00;5034987;28;20060;-48
2023/01/28 08:18:40;;;;;;;16.80;11.52;;;;;;;4.74;54.08;99032.53;5017142;28;20057;-48
2023/01/28 08:21:05;;;;;;;15.20;11.63;;;;;;;4.87;53.94;99031.28;5016980;28;20020;-48
2023/01/28 08:23:33;;;;;;;17.52;12.52;;;;;;;4.89;53.22;99040.59;5035062;28;20045;-47
2023/01/28 08:25:59;;;;;;;20.52;13.35;;;;;;;4.79;54.18;99032.88;5017496;28;20064;-48
2023/01/28 08:28:25;;;;;;;21.45;13.55;;;;;;;4.83;54.36;99041.19;5034755;28;20032;-48
2023/01/28 08:30:51;;;;;;;20.67;12.52;;;;;;;4.93;53.97;99047.09;5034607;28;20031;-48
2023/01/28 08:33:18;;;;;;;15.15;11.70;;;;;;;5.09;53.16;99037.72;5017039;28;20082;-48
2023/01/28 08:35:44;;;;;;;15.75;11.02;;;;;;;5.25;52.63;99039.56;5034597;28;20021;-48
2023/01/28 08:38:12;;;;;;;18.08;12.95;;;;;;;5.46;52.40;99037.38;5033843;28;20116;-48
2023/01/28 08:40:37;;;;;;;16.10;12.25;;;;;;;5.52;52.08;99041.13;5017056;28;20092;-48
2023/01/28 08:43:03;;;;;;;15.90;12.52;;;;;;;5.35;51.39;99055.88;5034388;28;20529;-48
2023/01/28 08:45:30;;;;;;;17.15;13.18;;;;;;;5.13;52.16;99059.84;5016599;28;20077;-48
2023/01/28 08:48:05;;;;;;;19.98;13.65;;;;;;;5.20;52.60;99053.06;5034318;28;20029;-47
2023/01/28 08:50:33;;;;;;;19.98;12.40;;;;;;;5.46;52.34;99057.41;5034302;28;20021;-48
2023/01/28 08:53:01;;;;;;;19.45;12.00;;;;;;;5.67;51.52;99064.75;5013011;28;20535;-48
2023/01/28 08:55:27;;;;;;;17.52;11.60;;;;;;;5.55;50.93;99066.84;5013304;28;20085;-48
2023/01/28 08:57:53;;;;;;;21.35;14.35;;;;;;;5.31;51.75;99073.63;5014467;28;20026;-48
2023/01/28 09:00:21;;;;;;;19.00;13.75;;;;;;;5.26;51.59;99065.44;5013022;28;20488;-48
2023/01/28 09:02:49;;;;;;;24.10;14.88;;;;;;;5.32;51.85;99067.41;5012994;28;20053;-47
2023/01/28 09:05:15;;;;;;;25.58;11.68;;;;;;;5.58;52.30;99071.75;4996691;28;20026;-47
2023/01/28 09:07:41;;;;;;;20.85;12.52;;;;;;;5.72;51.25;99078.94;5012992;28;20145;-48
2023/01/28 09:10:08;;;;;;;19.85;12.07;;;;;;;5.67;50.87;99085.59;5012904;28;20121;-48
2023/01/28 09:12:34;;;;;;;13.35;11.05;;;;;;;5.59;51.33;99089.81;5012902;28;20026;-47
2023/01/28 09:15:00;;;;;;;17.02;11.93;;;;;;;5.66;52.10;99094.38;5012857;28;20091;-47
2023/01/28 09:17:25;;;;;;;18.33;11.50;;;;;;;5.70;51.94;99090.50;5014316;28;20047;-48
2023/01/28 09:19:51;;;;;;;16.08;11.45;;;;;;;5.76;51.44;99098.47;5012884;28;20489;-48
2023/01/28 09:22:17;;;;;;;14.85;11.68;;;;;;;5.81;51.15;99100.59;5012532;28;20022;-48
2023/01/28 09:24:42;;;;;;;17.35;12.60;;;;;;;5.61;50.69;99110.47;5012667;28;20033;-47
2023/01/28 09:27:08;;;;;;;13.77;11.50;;;;;;;5.40;51.99;99108.28;4996329;28;20036;-47
2023/01/28 09:29:34;;;;;;;14.38;11.95;;;;;;;5.30;52.41;99105.81;5014082;28;20041;-47
2023/01/28 09:32:00;;;;;;;21.35;17.40;;;;;;;5.28;51.71;99123.34;5014093;28;20021;-48
2023/01/28 09:34:25;;;;;;;19.92;13.43;;;;;;;5.19;51.97;99124.28;5013773;28;20510;-48
2023/01/28 09:36:52;;;;;;;21.70;12.80;;;;;;;5.17;52.49;99121.84;5013722;28;20101;-48
2023/01/28 09:39:17;;;;;;;15.30;11.18;;;;;;;5.15;53.08;99122.94;5013676;28;20111;-48
2023/01/28 09:42:04;;;;;;;15.60;12.15;;;;;;;5.09;52.58;99134.81;5012239;28;20058;-47
2023/01/28 09:44:37;;;;;;;18.73;11.85;;;;;;;5.14;53.04;99129.13;5012325;28;20415;-47
2023/01/28 09:47:21;;;;;;;19.52;13.10;;;;;;;5.22;52.90;99129.19;5013568;28;20087;-47
2023/01/28 09:49:52;;;;;;;15.55;11.40;;;;;;;5.44;53.32;99129.63;5012499;28;20037;-47
2023/01/28 09:52:22;;;;;;;17.35;12.05;;;;;;;5.38;52.73;99137.06;5022240;28;20529;-48
2023/01/28 09:54:52;;;;;;;16.05;11.68;;;;;;;5.34;52.89;99134.94;5015388;28;20041;-47
2023/01/28 09:57:39;;;;;;;19.50;11.82;;;;;;;5.32;52.08;99147.28;5033068;28;20033;-47
2023/01/28 10:00:16;;;;;;;20.35;12.05;;;;;;;5.42;53.04;99141.97;5033237;28;20494;-48
2023/01/28 10:03:00;;;;;;;36.10;24.70;;;;;;;5.50;52.71;99148.03;5032830;28;20026;-48
2023/01/28 10:05:38;;;;;;;24.73;18.40;;;;;;;5.60;52.72;99140.09;5032877;28;20101;-48
2023/01/28 10:08:09;;;;;;;19.85;15.98;;;;;;;5.65;52.51;99145.63;5032907;28;20028;-48
2023/01/28 10:10:46;;;;;;;21.05;15.32;;;;;;;5.48;52.28;99149.16;5032843;28;20030;-48
2023/01/28 10:13:39;;;;;;;24.05;13.10;;;;;;;5.35;52.71;99150.41;5033055;28;20084;-47
2023/01/28 10:16:12;;;;;;;18.02;13.27;;;;;;;5.18;53.17;99153.88;5014973;28;20026;-48
2023/01/28 10:18:40;;;;;;;19.65;12.85;;;;;;;5.32;53.45;99147.28;5014946;28;20033;-48
2023/01/28 10:21:27;;;;;;;22.20;12.77;;;;;;;5.54;53.17;99143.31;5032692;28;20025;-48
2023/01/28 10:24:29;;;;;;;16.95;12.65;;;;;;;5.78;52.35;99145.22;5014880;28;20029;-47
2023/01/28 10:26:55;;;;;;;22.52;12.70;;;;;;;5.91;52.90;99148.16;5014792;28;20034;-47
2023/01/28 10:29:25;;;;;;;18.52;11.27;;;;;;;6.06;52.70;99148.41;5032479;28;20536;-47
2023/01/28 10:31:54;;;;;;;18.58;12.55;;;;;;;6.17;52.52;99155.09;5015098;28;20029;-48
2023/01/28 10:34:21;;;;;;;15.63;12.60;;;;;;;6.14;51.81;99153.63;5032643;28;20022;-48
2023/01/28 10:36:47;;;;;;;17.25;12.65;;;;;;;6.07;51.35;99144.00;5014572;28;20120;-48
2023/01/28 10:39:15;;;;;;;16.70;11.27;;;;;;;5.93;51.38;99148.81;5032257;28;20021;-48
2023/01/28 10:41:41;;;;;;;14.48;11.93;;;;;;;5.95;51.26;99149.50;5032152;28;20029;-48
2023/01/28 10:44:17;;;;;;;14.48;12.27;;;;;;;5.75;52.28;99155.91;5032274;28;20017;-48
2023/01/28 10:46:45;;;;;;;;;;;;;;;5.70;52.69;99148.59;5015043;28;20053;-48
2023/01/28 10:49:26;;;;;;;14.05;10.95;;;;;;;5.84;52.20;99144.56;5032155;28;20333;-48
2023/01/28 10:51:52;;;;;;;18.15;12.93;;;;;;;5.87;51.52;99146.03;5031976;28;20850;-47
2023/01/28 10:54:23;;;;;;;17.30;11.85;;;;;;;5.96;52.22;99151.16;5014571;28;20147;-48
2023/01/28 10:57:00;;;;;;;17.02;13.05;;;;;;;6.08;51.65;99146.44;5031977;28;20500;-48
2023/01/28 10:59:35;;;;;;;18.08;11.68;;;;;;;6.05;52.19;99140.75;5032096;28;20423;-48
2023/01/28 11:02:35;;;;;;;14.73;11.67;;;;;;;6.13;51.90;99140.75;5031581;28;20375;-48
2023/01/28 11:05:21;;;;;;;13.52;10.80;;;;;;;6.04;51.66;99139.94;5016929;28;20327;-48
2023/01/28 11:07:50;;;;;;;;;;;;;;;6.04;51.89;99136.50;5014587;28;20021;-48
2023/01/28 11:10:35;;;;;;;18.60;11.95;;;;;;;6.10;51.25;99134.06;5031778;28;20341;-48
2023/01/28 11:13:04;;;;;;;19.33;12.47;;;;;;;6.05;51.74;99136.34;5031976;28;20503;-48
2023/01/28 11:15:30;;;;;;;13.52;10.77;;;;;;;6.24;51.56;99129.19;5031823;28;20053;-47
2023/01/28 11:18:00;;;;;;;17.58;12.45;;;;;;;6.24;50.71;99123.97;4998093;28;20053;-48
2023/01/28 11:20:30;;;;;;;17.98;11.88;;;;;;;6.30;50.98;99131.16;5031685;28;20037;-48
2023/01/28 11:22:56;;;;;;;19.40;11.88;;;;;;;6.54;52.03;99128.59;5013901;28;20029;-48
2023/01/28 11:25:32;;;;;;;14.30;11.15;;;;;;;6.83;51.52;99119.41;5013999;28;20141;-48
2023/01/28 11:28:01;;;;;;;14.63;12.02;;;;;;;6.88;50.62;99111.09;5014036;28;20116;-48
2023/01/28 11:30:39;;;;;;;17.80;11.60;;;;;;;6.84;50.41;99118.47;5013946;28;20030;-48
2023/01/28 11:33:14;;;;;;;14.85;12.00;;;;;;;6.66;50.46;99120.41;5014285;28;20031;-48
2023/01/28 11:35:39;;;;;;;19.35;12.25;;;;;;;6.55;51.29;99116.34;5031695;28;20060;-48
2023/01/28 11:38:20;;;;;;;17.63;11.77;;;;;;;6.44;50.69;99114.91;5013839;28;20064;-48
2023/01/28 11:40:52;;;;;;;16.77;12.07;;;;;;;6.49;50.74;99106.56;5031882;28;20180;-48
2023/01/28 11:43:25;;;;;;;18.75;11.20;;;;;;;6.62;51.92;99106.06;5031757;28;20014;-48
2023/01/28 11:46:18;;;;;;;15.82;11.60;;;;;;;6.83;51.31;99101.16;5013828;28;20406;-48
2023/01/28 11:49:25;;;;;;;15.23;11.15;;;;;;;6.89;49.70;99108.31;5013762;28;20021;-48
2023/01/28 11:52:03;;;;;;;14.45;10.75;;;;;;;6.70;50.76;99111.28;4970218;28;20049;-48
2023/01/28 11:54:44;;;;;;;15.60;11.50;;;;;;;6.72;51.14;99112.75;4970643;28;20051;-48
2023/01/28 11:57:23;;;;;;;17.73;11.32;;;;;;;6.89;51.14;99104.91;4970545;28;20572;-48
2023/01/28 12:00:09;;;;;;;44.13;39.22;;;;;;;7.01;50.78;99108.78;4954325;28;20069;-48
2023/01/28 12:02:41;;;;;;;25.98;20.40;;;;;;;7.03;50.61;99109.44;4970448;28;20031;-48